createdAt,value
2019-01-11T00:02:39.107Z,0.5
2019-01-11T00:07:39.246Z,0.4
2019-01-11T00:12:27.713Z,0.5
2019-01-11T00:17:28.118Z,0.5
2019-01-11T00:22:28.033Z,0.6
2019-01-11T00:27:27.184Z,0.7
2019-01-11T00:32:28.965Z,0.9
2019-01-11T00:37:28.606Z,0.8
2019-01-11T00:42:27.881Z,1.0
2019-01-11T00:47:27.952Z,1.1
2019-01-11T00:52:27.552Z,1.2
2019-01-11T00:57:27.789Z,1.3
2019-01-11T01:02:28.757Z,1.4
2019-01-11T01:07:28.010Z,1.6
2019-01-11T01:12:27.465Z,1.5
2019-01-11T01:17:27.778Z,1.6
2019-01-11T01:22:27.492Z,1.6
2019-01-11T01:27:28.077Z,1.6
2019-01-11T01:32:27.433Z,1.6
2019-01-11T01:37:27.385Z,1.6
2019-01-11T01:42:27.624Z,1.5
2019-01-11T01:47:28.335Z,1.5
2019-01-11T01:52:27.710Z,1.5
2019-01-11T01:57:26.918Z,1.4
2019-01-11T02:02:28.175Z,1.3
2019-01-11T02:07:28.818Z,1.2
2019-01-11T02:12:27.439Z,1.2
2019-01-11T02:17:28.083Z,1.1
2019-01-11T02:22:27.977Z,1.0
2019-01-11T02:27:27.853Z,0.8
2019-01-11T02:32:28.291Z,0.7
2019-01-11T02:37:27.224Z,0.7
2019-01-11T02:42:27.466Z,0.7
2019-01-11T02:47:28.184Z,0.6
2019-01-11T02:52:28.059Z,0.5
2019-01-11T02:57:27.653Z,0.5
2019-01-11T03:02:28.164Z,0.5
2019-01-11T03:07:27.697Z,0.4
2019-01-11T03:12:28.687Z,0.6
2019-01-11T03:17:28.758Z,0.5
2019-01-11T03:22:28.761Z,0.7
2019-01-11T03:27:27.992Z,0.7
2019-01-11T03:32:28.080Z,0.6
2019-01-11T03:37:28.125Z,0.6
2019-01-11T03:42:28.155Z,0.6
2019-01-11T03:47:28.014Z,0.7
2019-01-11T03:52:27.044Z,0.7
2019-01-11T03:57:27.554Z,0.8
2019-01-11T04:02:28.227Z,0.8
2019-01-11T04:07:28.515Z,0.9
2019-01-11T04:12:28.199Z,0.9
2019-01-11T04:17:27.941Z,0.9
2019-01-11T04:22:29.577Z,0.8
2019-01-11T04:27:28.018Z,0.8
2019-01-11T04:32:27.891Z,0.8
2019-01-11T04:37:28.627Z,0.7
2019-01-11T04:42:27.341Z,0.6
2019-01-11T04:47:28.987Z,0.6
2019-01-11T04:52:27.782Z,0.6
2019-01-11T04:57:28.292Z,0.6
2019-01-11T05:02:28.592Z,0.6
2019-01-11T05:07:28.440Z,0.6
2019-01-11T05:12:28.134Z,0.6
2019-01-11T05:17:27.751Z,0.6
2019-01-11T05:22:27.535Z,0.6
2019-01-11T05:27:28.365Z,0.5
2019-01-11T05:32:27.588Z,0.4
2019-01-11T05:37:28.296Z,0.3
2019-01-11T05:42:28.953Z,0.2
2019-01-11T05:47:28.017Z,0.2
2019-01-11T05:52:28.253Z,0.2
2019-01-11T05:57:27.557Z,0.2
2019-01-11T06:02:27.946Z,0.1
2019-01-11T06:07:28.384Z,0.1
2019-01-11T06:12:28.029Z,0.1
2019-01-11T06:17:28.362Z,0.0
2019-01-11T06:22:27.629Z,-0.1
2019-01-11T06:27:27.938Z,-0.2
2019-01-11T06:32:27.932Z,-0.3
2019-01-11T06:37:27.781Z,-0.3
2019-01-11T06:42:28.427Z,-0.2
2019-01-11T06:47:27.890Z,-0.1
2019-01-11T06:52:28.948Z,0.0
2019-01-11T06:57:28.868Z,0.1
2019-01-11T07:02:27.978Z,0.0
2019-01-11T07:07:28.109Z,-0.1
2019-01-11T07:12:28.303Z,-0.1
2019-01-11T07:17:28.234Z,-0.1
2019-01-11T07:22:29.445Z,0.0
2019-01-11T07:27:28.900Z,0.2
2019-01-11T07:32:28.216Z,0.1
2019-01-11T07:37:28.815Z,0.3
2019-01-11T07:42:28.443Z,0.4
2019-01-11T07:47:28.256Z,0.5
2019-01-11T07:52:28.242Z,0.5
2019-01-11T07:57:27.992Z,0.6
2019-01-11T08:02:28.074Z,0.7
2019-01-11T08:07:28.486Z,0.6
2019-01-11T08:12:27.623Z,0.6
2019-01-11T08:17:28.928Z,0.7
2019-01-11T08:22:28.640Z,0.5
2019-01-11T08:27:28.597Z,0.5
2019-01-11T08:32:29.091Z,0.6
2019-01-11T08:37:28.533Z,0.8
2019-01-11T08:42:28.613Z,1.0
2019-01-11T08:47:28.453Z,0.9
2019-01-11T08:52:28.015Z,1.1
2019-01-11T08:57:28.348Z,1.3
2019-01-11T09:02:28.214Z,1.6
2019-01-11T09:07:28.860Z,1.8
2019-01-11T09:12:28.606Z,1.8
2019-01-11T09:17:28.914Z,2.1
2019-01-11T09:22:28.004Z,2.3
2019-01-11T09:27:28.532Z,2.4
2019-01-11T09:32:28.172Z,2.6
2019-01-11T09:37:28.349Z,2.7
2019-01-11T09:42:28.688Z,2.8
2019-01-11T09:47:28.210Z,2.9
2019-01-11T09:52:27.821Z,3.0
2019-01-11T09:57:28.179Z,3.1
2019-01-11T10:02:29.000Z,3.3
2019-01-11T10:07:28.374Z,3.5
2019-01-11T10:12:27.530Z,3.5
2019-01-11T10:17:28.843Z,3.7
2019-01-11T10:22:28.687Z,3.8
2019-01-11T10:27:28.345Z,3.8
2019-01-11T10:32:28.561Z,4.0
2019-01-11T10:37:27.987Z,3.9
2019-01-11T10:42:28.321Z,4.0
2019-01-11T10:47:29.963Z,4.1
2019-01-11T10:52:28.009Z,4.2
2019-01-11T10:57:28.011Z,4.0
2019-01-11T11:02:28.544Z,4.0
2019-01-11T11:07:28.459Z,4.0
2019-01-11T11:12:27.702Z,4.0
2019-01-11T11:17:28.269Z,3.9
2019-01-11T11:22:28.252Z,3.9
2019-01-11T11:27:29.230Z,3.8
2019-01-11T11:32:28.135Z,3.7
2019-01-11T11:37:28.498Z,3.7
2019-01-11T11:42:28.609Z,3.8
2019-01-11T11:47:28.158Z,3.7
2019-01-11T11:52:27.704Z,3.6
2019-01-11T11:57:28.360Z,3.5
2019-01-11T12:02:28.035Z,3.3
2019-01-11T12:07:28.448Z,3.3
2019-01-11T12:12:28.677Z,3.2
2019-01-11T12:17:27.974Z,3.1
2019-01-11T12:22:28.357Z,3.1
2019-01-11T12:27:28.671Z,3.0
2019-01-11T12:32:28.008Z,3.1
2019-01-11T12:37:28.478Z,3.1
2019-01-11T12:42:28.348Z,3.2
2019-01-11T12:47:28.712Z,3.1
2019-01-11T12:52:28.019Z,3.1
2019-01-11T12:57:28.156Z,3.1
2019-01-11T13:02:28.163Z,2.9
2019-01-11T13:07:28.938Z,2.6
2019-01-11T13:12:28.678Z,2.6
2019-01-11T13:17:28.825Z,2.6
2019-01-11T13:22:28.087Z,2.6
2019-01-11T13:27:29.163Z,2.6
2019-01-11T13:32:28.730Z,2.4
2019-01-11T13:37:28.564Z,2.2
2019-01-11T13:42:28.938Z,2.2
2019-01-11T13:47:28.433Z,2.1
2019-01-11T13:52:27.891Z,2.1
2019-01-11T13:57:28.160Z,2.0
2019-01-11T14:02:28.010Z,2.0
2019-01-11T14:07:28.226Z,1.9
2019-01-11T14:12:28.602Z,1.9
2019-01-11T14:17:28.689Z,1.9
2019-01-11T14:22:28.410Z,1.6
2019-01-11T14:27:28.068Z,1.6
2019-01-11T14:32:28.819Z,1.5
2019-01-11T14:37:32.237Z,1.5
2019-01-11T14:42:29.009Z,1.5
2019-01-11T14:47:29.595Z,1.6
2019-01-11T14:52:27.585Z,1.6
2019-01-11T14:57:27.810Z,1.6
2019-01-11T15:02:28.428Z,1.5
2019-01-11T15:07:28.698Z,1.5
2019-01-11T15:12:30.021Z,1.4
2019-01-11T15:17:28.711Z,1.5
2019-01-11T15:22:27.866Z,1.5
2019-01-11T15:27:28.876Z,1.4
2019-01-11T15:32:28.813Z,1.4
2019-01-11T15:37:28.386Z,1.4
2019-01-11T15:42:28.439Z,1.4
2019-01-11T15:47:29.194Z,1.4
2019-01-11T15:52:33.190Z,1.3
2019-01-11T15:57:28.743Z,1.2
2019-01-11T16:02:28.168Z,1.2
2019-01-11T16:07:28.891Z,1.1
2019-01-11T16:12:28.545Z,1.1
2019-01-11T16:17:28.521Z,1.0
2019-01-11T16:22:28.801Z,1.1
2019-01-11T16:27:28.488Z,1.1
2019-01-11T16:32:28.895Z,1.2
2019-01-11T16:37:27.886Z,1.2
2019-01-11T16:42:27.657Z,1.3
2019-01-11T16:47:27.929Z,1.3
2019-01-11T16:52:27.439Z,1.4
2019-01-11T16:57:28.386Z,1.4
2019-01-11T17:02:27.937Z,1.5
2019-01-11T17:07:28.210Z,1.4
2019-01-11T17:12:27.527Z,1.4
2019-01-11T17:17:28.598Z,1.4
2019-01-11T17:22:28.343Z,1.4
2019-01-11T17:27:27.353Z,1.4
2019-01-11T17:32:28.341Z,1.4
2019-01-11T17:37:28.637Z,1.4
2019-01-11T17:42:28.263Z,1.6
2019-01-11T17:47:28.063Z,1.7
2019-01-11T17:52:27.855Z,1.6
2019-01-11T17:57:27.664Z,1.7
2019-01-11T18:02:27.687Z,1.6
2019-01-11T18:07:28.914Z,1.6
2019-01-11T18:12:28.471Z,1.7
2019-01-11T18:17:28.415Z,1.7
2019-01-11T18:22:27.434Z,1.8
2019-01-11T18:27:27.752Z,1.8
2019-01-11T18:32:27.825Z,1.9
2019-01-11T18:37:27.806Z,2.0
2019-01-11T18:42:28.351Z,2.1
2019-01-11T18:47:28.800Z,2.1
2019-01-11T18:52:28.062Z,2.1
2019-01-11T18:57:27.700Z,2.0
2019-01-11T19:02:27.756Z,1.9
2019-01-11T19:07:28.381Z,1.8
2019-01-11T19:12:27.907Z,1.8
2019-01-11T19:17:29.982Z,1.8
2019-01-11T19:22:27.952Z,1.8
2019-01-11T19:27:28.061Z,1.8
2019-01-11T19:32:28.286Z,1.8
2019-01-11T19:37:28.287Z,1.8
2019-01-11T19:42:27.913Z,1.8
2019-01-11T19:47:27.673Z,1.8
2019-01-11T19:52:27.031Z,1.8
2019-01-11T19:57:27.296Z,1.8
2019-01-11T20:02:27.896Z,1.8
2019-01-11T20:07:27.491Z,1.7
2019-01-11T20:12:28.472Z,1.7
2019-01-11T20:17:29.420Z,1.7
2019-01-11T20:22:27.603Z,1.7
2019-01-11T20:27:27.810Z,1.6
2019-01-11T20:32:28.429Z,1.6
2019-01-11T20:37:27.698Z,1.7
2019-01-11T20:42:27.482Z,1.6
2019-01-11T20:47:27.939Z,1.6
2019-01-11T20:52:28.865Z,1.6
2019-01-11T20:57:28.562Z,1.6
2019-01-11T21:02:28.139Z,1.7
2019-01-11T21:07:27.444Z,1.7
2019-01-11T21:12:27.893Z,1.8
2019-01-11T21:17:28.411Z,1.7
2019-01-11T21:22:27.786Z,1.7
2019-01-11T21:27:28.047Z,1.8
2019-01-11T21:32:28.235Z,1.8
2019-01-11T21:37:28.014Z,1.8
2019-01-11T21:42:28.108Z,1.9
2019-01-11T21:47:27.846Z,1.9
2019-01-11T21:52:28.015Z,2.0
2019-01-11T21:57:27.667Z,2.0
2019-01-11T22:02:28.521Z,2.1
2019-01-11T22:07:28.280Z,2.2
2019-01-11T22:12:27.531Z,2.2
2019-01-11T22:17:27.645Z,2.3
2019-01-11T22:22:27.759Z,2.3
2019-01-11T22:27:27.089Z,2.4
2019-01-11T22:32:29.716Z,2.3
2019-01-11T22:37:27.720Z,2.3
2019-01-11T22:42:27.856Z,2.3
2019-01-11T22:47:27.441Z,2.3
2019-01-11T22:52:28.791Z,2.4
2019-01-11T22:57:27.684Z,2.5
2019-01-11T23:02:27.508Z,2.6
2019-01-11T23:07:27.931Z,2.7
2019-01-11T23:12:28.118Z,2.7
2019-01-11T23:22:40.148Z,2.7
2019-01-11T23:27:39.630Z,2.7
2019-01-11T23:32:39.330Z,2.7
2019-01-11T23:37:38.398Z,2.7
2019-01-11T23:42:39.745Z,2.7
2019-01-11T23:47:39.558Z,2.7
2019-01-11T23:52:38.884Z,2.8
2019-01-11T23:57:38.651Z,2.8
